sensor_id;sensor_type;location;lat;lon;timestamp;P1;durP1;ratioP1;P2;durP2;ratioP2
54937;SDS011;52756;52.826;6.214;2022-12-29T00:02:23;6.18;;;5.35;;
54937;SDS011;52756;52.826;6.214;2022-12-29T00:04:49;4.95;;;4.40;;
54937;SDS011;52756;52.826;6.214;2022-12-29T00:07:16;4.88;;;4.38;;
54937;SDS011;52756;52.826;6.214;2022-12-29T00:09:42;6.03;;;5.43;;
54937;SDS011;52756;52.826;6.214;2022-12-29T00:12:08;5.85;;;4.90;;
54937;SDS011;52756;52.826;6.214;2022-12-29T00:14:33;5.05;;;4.50;;
54937;SDS011;52756;52.826;6.214;2022-12-29T00:17:18;6.30;;;5.28;;
54937;SDS011;52756;52.826;6.214;2022-12-29T00:19:43;6.07;;;4.93;;
54937;SDS011;52756;52.826;6.214;2022-12-29T00:22:28;5.63;;;4.63;;
54937;SDS011;52756;52.826;6.214;2022-12-29T00:25:12;5.28;;;4.47;;
54937;SDS011;52756;52.826;6.214;2022-12-29T00:27:57;4.15;;;3.58;;
54937;SDS011;52756;52.826;6.214;2022-12-29T00:30:42;8.07;;;4.47;;
54937;SDS011;52756;52.826;6.214;2022-12-29T00:33:30;5.13;;;4.20;;
54937;SDS011;52756;52.826;6.214;2022-12-29T00:36:17;5.72;;;3.85;;
54937;SDS011;52756;52.826;6.214;2022-12-29T00:38:53;4.95;;;3.67;;
54937;SDS011;52756;52.826;6.214;2022-12-29T00:41:42;5.25;;;4.25;;
54937;SDS011;52756;52.826;6.214;2022-12-29T00:44:26;5.10;;;4.43;;
54937;SDS011;52756;52.826;6.214;2022-12-29T00:46:51;5.45;;;4.05;;
54937;SDS011;52756;52.826;6.214;2022-12-29T00:49:17;5.10;;;3.80;;
54937;SDS011;52756;52.826;6.214;2022-12-29T00:51:56;5.38;;;4.15;;
54937;SDS011;52756;52.826;6.214;2022-12-29T00:54:22;4.97;;;4.25;;
54937;SDS011;52756;52.826;6.214;2022-12-29T00:56:48;5.45;;;4.05;;
54937;SDS011;52756;52.826;6.214;2022-12-29T00:59:15;5.78;;;3.70;;
54937;SDS011;52756;52.826;6.214;2022-12-29T01:01:41;5.28;;;3.72;;
54937;SDS011;52756;52.826;6.214;2022-12-29T01:04:07;4.15;;;3.60;;
54937;SDS011;52756;52.826;6.214;2022-12-29T01:06:34;3.85;;;3.45;;
54937;SDS011;52756;52.826;6.214;2022-12-29T01:09:01;5.22;;;3.60;;
54937;SDS011;52756;52.826;6.214;2022-12-29T01:11:46;4.28;;;3.58;;
54937;SDS011;52756;52.826;6.214;2022-12-29T01:14:12;3.70;;;3.30;;
54937;SDS011;52756;52.826;6.214;2022-12-29T01:16:37;6.47;;;3.60;;
54937;SDS011;52756;52.826;6.214;2022-12-29T01:19:03;5.20;;;3.40;;
54937;SDS011;52756;52.826;6.214;2022-12-29T01:21:29;4.38;;;3.03;;
54937;SDS011;52756;52.826;6.214;2022-12-29T01:23:55;5.30;;;3.45;;
54937;SDS011;52756;52.826;6.214;2022-12-29T01:26:21;4.47;;;3.10;;
54937;SDS011;52756;52.826;6.214;2022-12-29T01:28:47;5.72;;;3.25;;
54937;SDS011;52756;52.826;6.214;2022-12-29T01:31:13;4.47;;;3.00;;
54937;SDS011;52756;52.826;6.214;2022-12-29T01:33:40;5.90;;;3.22;;
54937;SDS011;52756;52.826;6.214;2022-12-29T01:36:07;3.80;;;2.97;;
54937;SDS011;52756;52.826;6.214;2022-12-29T01:38:39;4.28;;;2.70;;
54937;SDS011;52756;52.826;6.214;2022-12-29T01:41:06;3.40;;;2.80;;
54937;SDS011;52756;52.826;6.214;2022-12-29T01:43:40;3.78;;;2.78;;
54937;SDS011;52756;52.826;6.214;2022-12-29T01:49:12;3.55;;;2.05;;
54937;SDS011;52756;52.826;6.214;2022-12-29T01:51:43;4.03;;;2.75;;
54937;SDS011;52756;52.826;6.214;2022-12-29T01:54:25;2.58;;;2.20;;
54937;SDS011;52756;52.826;6.214;2022-12-29T01:56:59;3.92;;;2.67;;
54937;SDS011;52756;52.826;6.214;2022-12-29T01:59:30;5.80;;;2.45;;
54937;SDS011;52756;52.826;6.214;2022-12-29T02:01:59;3.30;;;2.28;;
54937;SDS011;52756;52.826;6.214;2022-12-29T02:04:26;4.68;;;2.30;;
54937;SDS011;52756;52.826;6.214;2022-12-29T02:06:57;2.92;;;2.05;;
54937;SDS011;52756;52.826;6.214;2022-12-29T02:09:33;3.28;;;2.13;;
54937;SDS011;52756;52.826;6.214;2022-12-29T02:11:59;4.30;;;1.83;;
54937;SDS011;52756;52.826;6.214;2022-12-29T02:14:25;3.97;;;2.22;;
54937;SDS011;52756;52.826;6.214;2022-12-29T02:17:11;3.17;;;1.92;;
54937;SDS011;52756;52.826;6.214;2022-12-29T02:27:55;3.08;;;2.08;;
54937;SDS011;52756;52.826;6.214;2022-12-29T02:33:42;4.00;;;2.05;;
54937;SDS011;52756;52.826;6.214;2022-12-29T02:38:59;2.97;;;1.90;;
54937;SDS011;52756;52.826;6.214;2022-12-29T02:41:33;3.67;;;1.83;;
54937;SDS011;52756;52.826;6.214;2022-12-29T02:44:26;3.08;;;1.63;;
54937;SDS011;52756;52.826;6.214;2022-12-29T02:47:14;2.78;;;1.70;;
54937;SDS011;52756;52.826;6.214;2022-12-29T02:52:35;2.20;;;1.55;;
54937;SDS011;52756;52.826;6.214;2022-12-29T02:55:08;2.40;;;1.13;;
54937;SDS011;52756;52.826;6.214;2022-12-29T02:57:36;3.83;;;1.58;;
54937;SDS011;52756;52.826;6.214;2022-12-29T03:00:07;2.28;;;1.40;;
54937;SDS011;52756;52.826;6.214;2022-12-29T03:13:28;3.25;;;1.55;;
54937;SDS011;52756;52.826;6.214;2022-12-29T03:16:35;3.00;;;1.40;;
54937;SDS011;52756;52.826;6.214;2022-12-29T03:21:54;1.80;;;1.20;;
54937;SDS011;52756;52.826;6.214;2022-12-29T03:24:41;2.25;;;1.58;;
54937;SDS011;52756;52.826;6.214;2022-12-29T03:27:19;3.00;;;1.30;;
54937;SDS011;52756;52.826;6.214;2022-12-29T03:29:57;2.00;;;1.40;;
54937;SDS011;52756;52.826;6.214;2022-12-29T03:33:01;2.33;;;1.30;;
54937;SDS011;52756;52.826;6.214;2022-12-29T03:35:21;4.80;;;1.60;;
54937;SDS011;52756;52.826;6.214;2022-12-29T03:37:51;3.05;;;1.55;;
54937;SDS011;52756;52.826;6.214;2022-12-29T03:40:21;5.03;;;1.50;;
54937;SDS011;52756;52.826;6.214;2022-12-29T03:42:49;5.07;;;1.50;;
54937;SDS011;52756;52.826;6.214;2022-12-29T03:45:15;2.67;;;1.50;;
54937;SDS011;52756;52.826;6.214;2022-12-29T03:47:41;4.20;;;1.23;;
54937;SDS011;52756;52.826;6.214;2022-12-29T03:50:07;3.45;;;1.20;;
54937;SDS011;52756;52.826;6.214;2022-12-29T03:52:34;3.33;;;1.30;;
54937;SDS011;52756;52.826;6.214;2022-12-29T03:54:59;5.07;;;1.55;;
54937;SDS011;52756;52.826;6.214;2022-12-29T03:57:25;4.43;;;1.10;;
54937;SDS011;52756;52.826;6.214;2022-12-29T03:59:50;2.78;;;1.20;;
54937;SDS011;52756;52.826;6.214;2022-12-29T04:02:16;3.90;;;1.45;;
54937;SDS011;52756;52.826;6.214;2022-12-29T04:04:42;3.72;;;1.17;;
54937;SDS011;52756;52.826;6.214;2022-12-29T04:07:08;2.95;;;0.90;;
54937;SDS011;52756;52.826;6.214;2022-12-29T04:09:33;4.82;;;1.25;;
54937;SDS011;52756;52.826;6.214;2022-12-29T04:11:59;6.82;;;1.20;;
54937;SDS011;52756;52.826;6.214;2022-12-29T04:14:25;4.30;;;1.10;;
54937;SDS011;52756;52.826;6.214;2022-12-29T04:16:50;3.75;;;1.10;;
54937;SDS011;52756;52.826;6.214;2022-12-29T04:19:16;3.28;;;0.88;;
54937;SDS011;52756;52.826;6.214;2022-12-29T04:21:42;3.75;;;1.27;;
54937;SDS011;52756;52.826;6.214;2022-12-29T04:24:07;3.00;;;1.00;;
54937;SDS011;52756;52.826;6.214;2022-12-29T04:26:33;2.92;;;0.85;;
54937;SDS011;52756;52.826;6.214;2022-12-29T04:28:59;4.07;;;1.02;;
54937;SDS011;52756;52.826;6.214;2022-12-29T04:31:25;4.90;;;1.00;;
54937;SDS011;52756;52.826;6.214;2022-12-29T04:33:50;5.15;;;1.00;;
54937;SDS011;52756;52.826;6.214;2022-12-29T04:36:16;3.40;;;1.00;;
54937;SDS011;52756;52.826;6.214;2022-12-29T04:38:42;5.28;;;1.38;;
54937;SDS011;52756;52.826;6.214;2022-12-29T04:41:07;5.85;;;1.65;;
54937;SDS011;52756;52.826;6.214;2022-12-29T04:43:33;3.22;;;1.30;;
54937;SDS011;52756;52.826;6.214;2022-12-29T04:45:59;4.75;;;1.52;;
54937;SDS011;52756;52.826;6.214;2022-12-29T04:48:24;5.97;;;1.48;;
54937;SDS011;52756;52.826;6.214;2022-12-29T04:50:50;11.05;;;1.90;;
54937;SDS011;52756;52.826;6.214;2022-12-29T04:53:16;6.50;;;1.50;;
54937;SDS011;52756;52.826;6.214;2022-12-29T04:55:42;6.57;;;1.30;;
54937;SDS011;52756;52.826;6.214;2022-12-29T04:58:08;5.65;;;1.55;;
54937;SDS011;52756;52.826;6.214;2022-12-29T05:00:34;5.97;;;1.60;;
54937;SDS011;52756;52.826;6.214;2022-12-29T05:02:59;6.00;;;1.70;;
54937;SDS011;52756;52.826;6.214;2022-12-29T05:05:25;6.32;;;1.27;;
54937;SDS011;52756;52.826;6.214;2022-12-29T05:07:51;7.47;;;1.65;;
54937;SDS011;52756;52.826;6.214;2022-12-29T05:10:17;5.90;;;1.40;;
54937;SDS011;52756;52.826;6.214;2022-12-29T05:12:43;5.28;;;1.38;;
54937;SDS011;52756;52.826;6.214;2022-12-29T05:15:09;7.15;;;1.83;;
54937;SDS011;52756;52.826;6.214;2022-12-29T05:17:36;6.00;;;1.80;;
54937;SDS011;52756;52.826;6.214;2022-12-29T05:20:02;8.75;;;1.60;;
54937;SDS011;52756;52.826;6.214;2022-12-29T05:22:29;6.40;;;1.48;;
54937;SDS011;52756;52.826;6.214;2022-12-29T05:24:55;8.35;;;1.85;;
54937;SDS011;52756;52.826;6.214;2022-12-29T05:27:21;6.82;;;1.33;;
54937;SDS011;52756;52.826;6.214;2022-12-29T05:29:46;5.10;;;1.30;;
54937;SDS011;52756;52.826;6.214;2022-12-29T05:32:12;6.13;;;1.20;;
54937;SDS011;52756;52.826;6.214;2022-12-29T05:34:38;6.00;;;1.20;;
54937;SDS011;52756;52.826;6.214;2022-12-29T05:37:03;6.15;;;1.40;;
54937;SDS011;52756;52.826;6.214;2022-12-29T05:39:29;5.60;;;1.27;;
54937;SDS011;52756;52.826;6.214;2022-12-29T05:41:55;5.65;;;1.45;;
54937;SDS011;52756;52.826;6.214;2022-12-29T05:44:21;9.30;;;1.40;;
54937;SDS011;52756;52.826;6.214;2022-12-29T05:46:46;4.68;;;1.10;;
54937;SDS011;52756;52.826;6.214;2022-12-29T05:49:12;8.55;;;1.70;;
54937;SDS011;52756;52.826;6.214;2022-12-29T05:51:38;8.45;;;1.27;;
54937;SDS011;52756;52.826;6.214;2022-12-29T05:54:03;8.50;;;1.67;;
54937;SDS011;52756;52.826;6.214;2022-12-29T05:56:29;5.13;;;1.10;;
54937;SDS011;52756;52.826;6.214;2022-12-29T05:58:55;7.30;;;1.33;;
54937;SDS011;52756;52.826;6.214;2022-12-29T06:01:20;7.93;;;1.48;;
54937;SDS011;52756;52.826;6.214;2022-12-29T06:03:46;6.35;;;1.40;;
54937;SDS011;52756;52.826;6.214;2022-12-29T06:06:12;6.75;;;1.15;;
54937;SDS011;52756;52.826;6.214;2022-12-29T06:08:38;7.93;;;1.35;;
54937;SDS011;52756;52.826;6.214;2022-12-29T06:11:03;6.53;;;1.48;;
54937;SDS011;52756;52.826;6.214;2022-12-29T06:13:29;9.80;;;2.53;;
54937;SDS011;52756;52.826;6.214;2022-12-29T06:15:55;12.07;;;2.10;;
54937;SDS011;52756;52.826;6.214;2022-12-29T06:18:20;10.38;;;1.95;;
54937;SDS011;52756;52.826;6.214;2022-12-29T06:20:46;8.02;;;2.08;;
54937;SDS011;52756;52.826;6.214;2022-12-29T06:23:12;7.40;;;1.73;;
54937;SDS011;52756;52.826;6.214;2022-12-29T06:25:38;9.13;;;1.88;;
54937;SDS011;52756;52.826;6.214;2022-12-29T06:28:04;12.20;;;2.65;;
54937;SDS011;52756;52.826;6.214;2022-12-29T06:30:30;10.50;;;1.75;;
54937;SDS011;52756;52.826;6.214;2022-12-29T06:32:57;7.72;;;1.80;;
54937;SDS011;52756;52.826;6.214;2022-12-29T06:35:23;8.73;;;1.80;;
54937;SDS011;52756;52.826;6.214;2022-12-29T06:37:49;9.63;;;2.22;;
54937;SDS011;52756;52.826;6.214;2022-12-29T06:40:15;9.25;;;1.60;;
54937;SDS011;52756;52.826;6.214;2022-12-29T06:42:41;4.10;;;1.40;;
54937;SDS011;52756;52.826;6.214;2022-12-29T06:45:07;7.93;;;1.88;;
54937;SDS011;52756;52.826;6.214;2022-12-29T06:47:33;10.85;;;1.95;;
54937;SDS011;52756;52.826;6.214;2022-12-29T06:49:59;10.85;;;2.38;;
54937;SDS011;52756;52.826;6.214;2022-12-29T06:52:25;8.55;;;1.63;;
54937;SDS011;52756;52.826;6.214;2022-12-29T06:54:51;9.73;;;2.22;;
54937;SDS011;52756;52.826;6.214;2022-12-29T06:57:17;8.45;;;1.90;;
54937;SDS011;52756;52.826;6.214;2022-12-29T06:59:43;9.52;;;1.45;;
54937;SDS011;52756;52.826;6.214;2022-12-29T07:02:11;7.90;;;1.55;;
54937;SDS011;52756;52.826;6.214;2022-12-29T07:04:39;7.85;;;2.00;;
54937;SDS011;52756;52.826;6.214;2022-12-29T07:07:05;6.88;;;1.88;;
54937;SDS011;52756;52.826;6.214;2022-12-29T07:09:31;7.15;;;1.58;;
54937;SDS011;52756;52.826;6.214;2022-12-29T07:11:56;9.68;;;2.22;;
54937;SDS011;52756;52.826;6.214;2022-12-29T07:14:22;12.30;;;2.22;;
54937;SDS011;52756;52.826;6.214;2022-12-29T07:16:48;10.35;;;2.60;;
54937;SDS011;52756;52.826;6.214;2022-12-29T07:19:13;7.88;;;1.85;;
54937;SDS011;52756;52.826;6.214;2022-12-29T07:21:39;7.82;;;2.15;;
54937;SDS011;52756;52.826;6.214;2022-12-29T07:24:05;7.32;;;2.33;;
54937;SDS011;52756;52.826;6.214;2022-12-29T07:26:31;8.20;;;2.10;;
54937;SDS011;52756;52.826;6.214;2022-12-29T07:28:56;12.93;;;1.90;;
54937;SDS011;52756;52.826;6.214;2022-12-29T07:31:22;9.85;;;2.08;;
54937;SDS011;52756;52.826;6.214;2022-12-29T07:33:48;8.73;;;2.67;;
54937;SDS011;52756;52.826;6.214;2022-12-29T07:36:14;9.25;;;1.60;;
54937;SDS011;52756;52.826;6.214;2022-12-29T07:38:41;7.43;;;1.90;;
54937;SDS011;52756;52.826;6.214;2022-12-29T07:41:07;8.43;;;1.75;;
54937;SDS011;52756;52.826;6.214;2022-12-29T07:43:33;11.82;;;2.88;;
54937;SDS011;52756;52.826;6.214;2022-12-29T07:45:59;12.60;;;2.25;;
54937;SDS011;52756;52.826;6.214;2022-12-29T07:48:25;6.10;;;1.80;;
54937;SDS011;52756;52.826;6.214;2022-12-29T07:50:51;9.27;;;2.10;;
54937;SDS011;52756;52.826;6.214;2022-12-29T07:53:18;8.57;;;2.15;;
54937;SDS011;52756;52.826;6.214;2022-12-29T07:55:43;11.95;;;1.85;;
54937;SDS011;52756;52.826;6.214;2022-12-29T07:58:09;10.38;;;2.38;;
54937;SDS011;52756;52.826;6.214;2022-12-29T08:00:35;12.00;;;2.67;;
54937;SDS011;52756;52.826;6.214;2022-12-29T08:03:01;10.95;;;2.72;;
54937;SDS011;52756;52.826;6.214;2022-12-29T08:05:27;11.95;;;2.35;;
54937;SDS011;52756;52.826;6.214;2022-12-29T08:07:52;12.40;;;2.20;;
54937;SDS011;52756;52.826;6.214;2022-12-29T08:10:18;11.65;;;2.85;;
54937;SDS011;52756;52.826;6.214;2022-12-29T08:12:44;13.52;;;2.35;;
54937;SDS011;52756;52.826;6.214;2022-12-29T08:15:10;11.45;;;2.15;;
54937;SDS011;52756;52.826;6.214;2022-12-29T08:17:36;14.93;;;2.88;;
54937;SDS011;52756;52.826;6.214;2022-12-29T08:20:02;15.25;;;2.92;;
54937;SDS011;52756;52.826;6.214;2022-12-29T08:22:29;15.57;;;2.88;;
54937;SDS011;52756;52.826;6.214;2022-12-29T08:24:54;17.38;;;3.35;;
54937;SDS011;52756;52.826;6.214;2022-12-29T08:27:20;15.90;;;2.72;;
54937;SDS011;52756;52.826;6.214;2022-12-29T08:29:46;13.02;;;2.88;;
54937;SDS011;52756;52.826;6.214;2022-12-29T08:32:12;10.80;;;2.92;;
54937;SDS011;52756;52.826;6.214;2022-12-29T08:34:38;11.65;;;2.72;;
54937;SDS011;52756;52.826;6.214;2022-12-29T08:37:03;16.65;;;2.97;;
54937;SDS011;52756;52.826;6.214;2022-12-29T08:39:29;15.05;;;2.95;;
54937;SDS011;52756;52.826;6.214;2022-12-29T08:41:55;12.35;;;2.80;;
54937;SDS011;52756;52.826;6.214;2022-12-29T08:44:21;18.02;;;2.88;;
54937;SDS011;52756;52.826;6.214;2022-12-29T08:46:47;8.55;;;2.40;;
54937;SDS011;52756;52.826;6.214;2022-12-29T08:49:12;14.60;;;4.03;;
54937;SDS011;52756;52.826;6.214;2022-12-29T08:51:38;13.85;;;2.78;;
54937;SDS011;52756;52.826;6.214;2022-12-29T08:54:04;11.48;;;2.60;;
54937;SDS011;52756;52.826;6.214;2022-12-29T08:56:30;9.68;;;2.58;;
54937;SDS011;52756;52.826;6.214;2022-12-29T08:58:56;7.68;;;2.10;;
54937;SDS011;52756;52.826;6.214;2022-12-29T09:01:22;9.60;;;2.50;;
54937;SDS011;52756;52.826;6.214;2022-12-29T09:03:48;13.85;;;2.20;;
54937;SDS011;52756;52.826;6.214;2022-12-29T09:06:15;11.10;;;2.45;;
54937;SDS011;52756;52.826;6.214;2022-12-29T09:08:41;14.55;;;2.58;;
54937;SDS011;52756;52.826;6.214;2022-12-29T09:13:39;10.45;;;2.15;;
54937;SDS011;52756;52.826;6.214;2022-12-29T09:16:05;14.57;;;2.70;;
54937;SDS011;52756;52.826;6.214;2022-12-29T09:18:31;15.77;;;2.53;;
54937;SDS011;52756;52.826;6.214;2022-12-29T09:20:57;10.23;;;2.35;;
54937;SDS011;52756;52.826;6.214;2022-12-29T09:23:24;13.88;;;2.90;;
54937;SDS011;52756;52.826;6.214;2022-12-29T09:25:51;10.98;;;2.22;;
54937;SDS011;52756;52.826;6.214;2022-12-29T09:28:16;10.63;;;2.25;;
54937;SDS011;52756;52.826;6.214;2022-12-29T09:30:42;14.35;;;2.25;;
54937;SDS011;52756;52.826;6.214;2022-12-29T09:33:08;10.18;;;2.33;;
54937;SDS011;52756;52.826;6.214;2022-12-29T09:35:33;12.05;;;1.90;;
54937;SDS011;52756;52.826;6.214;2022-12-29T09:37:59;14.40;;;3.25;;
54937;SDS011;52756;52.826;6.214;2022-12-29T09:40:28;10.70;;;1.98;;
54937;SDS011;52756;52.826;6.214;2022-12-29T09:46:09;11.63;;;2.63;;
54937;SDS011;52756;52.826;6.214;2022-12-29T09:49:00;10.50;;;2.78;;
54937;SDS011;52756;52.826;6.214;2022-12-29T09:51:29;8.52;;;1.75;;
54937;SDS011;52756;52.826;6.214;2022-12-29T09:54:02;11.15;;;2.25;;
54937;SDS011;52756;52.826;6.214;2022-12-29T09:56:44;11.43;;;1.95;;
54937;SDS011;52756;52.826;6.214;2022-12-29T09:59:19;13.68;;;2.67;;
54937;SDS011;52756;52.826;6.214;2022-12-29T10:01:51;13.27;;;2.88;;
54937;SDS011;52756;52.826;6.214;2022-12-29T10:04:35;10.52;;;2.63;;
54937;SDS011;52756;52.826;6.214;2022-12-29T10:07:08;14.98;;;2.50;;
54937;SDS011;52756;52.826;6.214;2022-12-29T10:10:09;13.65;;;2.50;;
54937;SDS011;52756;52.826;6.214;2022-12-29T10:18:21;15.55;;;2.63;;
54937;SDS011;52756;52.826;6.214;2022-12-29T10:21:07;12.32;;;2.60;;
54937;SDS011;52756;52.826;6.214;2022-12-29T10:23:40;11.75;;;2.45;;
54937;SDS011;52756;52.826;6.214;2022-12-29T10:26:11;11.43;;;2.72;;
54937;SDS011;52756;52.826;6.214;2022-12-29T10:28:42;7.80;;;1.65;;
54937;SDS011;52756;52.826;6.214;2022-12-29T10:31:24;10.63;;;2.25;;
54937;SDS011;52756;52.826;6.214;2022-12-29T10:34:06;10.07;;;2.35;;
54937;SDS011;52756;52.826;6.214;2022-12-29T10:36:43;12.82;;;2.03;;
54937;SDS011;52756;52.826;6.214;2022-12-29T10:42:08;8.20;;;1.67;;
54937;SDS011;52756;52.826;6.214;2022-12-29T10:44:37;7.05;;;1.63;;
54937;SDS011;52756;52.826;6.214;2022-12-29T10:47:05;8.73;;;2.53;;
54937;SDS011;52756;52.826;6.214;2022-12-29T10:49:36;10.05;;;2.15;;
54937;SDS011;52756;52.826;6.214;2022-12-29T10:52:06;7.90;;;1.70;;
54937;SDS011;52756;52.826;6.214;2022-12-29T11:00:01;10.05;;;2.22;;
54937;SDS011;52756;52.826;6.214;2022-12-29T11:07:54;11.60;;;2.95;;
54937;SDS011;52756;52.826;6.214;2022-12-29T11:10:36;11.25;;;2.30;;
54937;SDS011;52756;52.826;6.214;2022-12-29T11:13:10;7.80;;;2.08;;
54937;SDS011;52756;52.826;6.214;2022-12-29T11:16:12;10.15;;;1.88;;
54937;SDS011;52756;52.826;6.214;2022-12-29T11:18:38;8.55;;;1.65;;
54937;SDS011;52756;52.826;6.214;2022-12-29T11:21:23;13.70;;;2.28;;
54937;SDS011;52756;52.826;6.214;2022-12-29T11:24:29;12.18;;;2.70;;
54937;SDS011;52756;52.826;6.214;2022-12-29T11:29:48;12.25;;;3.10;;
54937;SDS011;52756;52.826;6.214;2022-12-29T11:32:19;12.02;;;2.80;;
54937;SDS011;52756;52.826;6.214;2022-12-29T11:34:47;18.73;;;3.30;;
54937;SDS011;52756;52.826;6.214;2022-12-29T11:37:25;15.63;;;2.67;;
54937;SDS011;52756;52.826;6.214;2022-12-29T11:39:55;11.90;;;3.05;;
54937;SDS011;52756;52.826;6.214;2022-12-29T11:42:37;12.95;;;2.75;;
54937;SDS011;52756;52.826;6.214;2022-12-29T11:45:29;16.77;;;3.80;;
54937;SDS011;52756;52.826;6.214;2022-12-29T11:48:06;12.00;;;2.90;;
54937;SDS011;52756;52.826;6.214;2022-12-29T11:50:36;13.57;;;3.22;;
54937;SDS011;52756;52.826;6.214;2022-12-29T11:53:17;11.23;;;3.08;;
54937;SDS011;52756;52.826;6.214;2022-12-29T11:56:06;15.38;;;2.83;;
54937;SDS011;52756;52.826;6.214;2022-12-29T11:58:39;18.35;;;3.42;;
54937;SDS011;52756;52.826;6.214;2022-12-29T12:01:06;20.15;;;3.90;;
54937;SDS011;52756;52.826;6.214;2022-12-29T12:04:16;16.17;;;3.40;;
54937;SDS011;52756;52.826;6.214;2022-12-29T12:06:43;15.13;;;3.10;;
54937;SDS011;52756;52.826;6.214;2022-12-29T12:09:45;19.35;;;3.10;;
54937;SDS011;52756;52.826;6.214;2022-12-29T12:12:51;19.73;;;3.70;;
54937;SDS011;52756;52.826;6.214;2022-12-29T12:15:22;15.85;;;3.53;;
54937;SDS011;52756;52.826;6.214;2022-12-29T12:17:54;16.38;;;3.00;;
54937;SDS011;52756;52.826;6.214;2022-12-29T12:20:39;22.33;;;4.47;;
54937;SDS011;52756;52.826;6.214;2022-12-29T12:26:30;21.92;;;3.88;;
54937;SDS011;52756;52.826;6.214;2022-12-29T12:29:19;18.17;;;4.28;;
54937;SDS011;52756;52.826;6.214;2022-12-29T12:34:44;17.63;;;3.70;;
54937;SDS011;52756;52.826;6.214;2022-12-29T12:37:48;23.65;;;3.97;;
54937;SDS011;52756;52.826;6.214;2022-12-29T12:51:37;15.15;;;3.28;;
54937;SDS011;52756;52.826;6.214;2022-12-29T13:07:40;15.07;;;2.97;;
54937;SDS011;52756;52.826;6.214;2022-12-29T13:11:02;14.13;;;3.42;;
54937;SDS011;52756;52.826;6.214;2022-12-29T13:21:51;16.42;;;3.95;;
54937;SDS011;52756;52.826;6.214;2022-12-29T13:27:44;15.82;;;3.10;;
54937;SDS011;52756;52.826;6.214;2022-12-29T13:30:23;10.70;;;2.30;;
54937;SDS011;52756;52.826;6.214;2022-12-29T13:33:14;12.70;;;2.92;;
54937;SDS011;52756;52.826;6.214;2022-12-29T13:36:12;15.68;;;2.80;;
54937;SDS011;52756;52.826;6.214;2022-12-29T13:41:46;17.88;;;2.90;;
54937;SDS011;52756;52.826;6.214;2022-12-29T13:44:29;14.57;;;2.75;;
54937;SDS011;52756;52.826;6.214;2022-12-29T13:49:45;11.55;;;2.83;;
54937;SDS011;52756;52.826;6.214;2022-12-29T13:52:17;17.13;;;3.05;;
54937;SDS011;52756;52.826;6.214;2022-12-29T13:55:00;14.75;;;2.47;;
54937;SDS011;52756;52.826;6.214;2022-12-29T13:58:00;12.40;;;2.75;;
54937;SDS011;52756;52.826;6.214;2022-12-29T14:03:50;11.05;;;2.50;;
54937;SDS011;52756;52.826;6.214;2022-12-29T14:06:32;12.68;;;2.20;;
54937;SDS011;52756;52.826;6.214;2022-12-29T14:09:05;11.95;;;2.40;;
54937;SDS011;52756;52.826;6.214;2022-12-29T14:11:52;10.25;;;2.42;;
54937;SDS011;52756;52.826;6.214;2022-12-29T14:14:27;7.20;;;1.77;;
54937;SDS011;52756;52.826;6.214;2022-12-29T14:17:19;9.27;;;1.80;;
54937;SDS011;52756;52.826;6.214;2022-12-29T14:19:46;16.35;;;2.42;;
54937;SDS011;52756;52.826;6.214;2022-12-29T14:22:24;10.48;;;2.08;;
54937;SDS011;52756;52.826;6.214;2022-12-29T14:24:52;7.85;;;1.58;;
54937;SDS011;52756;52.826;6.214;2022-12-29T14:29:44;13.45;;;2.45;;
54937;SDS011;52756;52.826;6.214;2022-12-29T14:34:53;13.82;;;2.25;;
54937;SDS011;52756;52.826;6.214;2022-12-29T14:40:03;11.38;;;2.05;;
54937;SDS011;52756;52.826;6.214;2022-12-29T14:42:29;8.88;;;2.05;;
54937;SDS011;52756;52.826;6.214;2022-12-29T14:50:20;10.45;;;1.75;;
54937;SDS011;52756;52.826;6.214;2022-12-29T14:52:52;8.00;;;2.22;;
54937;SDS011;52756;52.826;6.214;2022-12-29T15:00:54;7.65;;;1.52;;
54937;SDS011;52756;52.826;6.214;2022-12-29T15:03:43;8.30;;;1.35;;
54937;SDS011;52756;52.826;6.214;2022-12-29T15:06:13;6.93;;;1.77;;
54937;SDS011;52756;52.826;6.214;2022-12-29T15:08:46;10.38;;;1.65;;
54937;SDS011;52756;52.826;6.214;2022-12-29T15:11:25;9.07;;;1.42;;
54937;SDS011;52756;52.826;6.214;2022-12-29T15:13:58;8.48;;;1.70;;
54937;SDS011;52756;52.826;6.214;2022-12-29T15:16:31;7.72;;;1.73;;
54937;SDS011;52756;52.826;6.214;2022-12-29T15:18:59;8.63;;;2.00;;
54937;SDS011;52756;52.826;6.214;2022-12-29T15:21:26;11.25;;;2.22;;
54937;SDS011;52756;52.826;6.214;2022-12-29T15:23:54;11.13;;;2.05;;
54937;SDS011;52756;52.826;6.214;2022-12-29T15:26:20;9.98;;;2.35;;
54937;SDS011;52756;52.826;6.214;2022-12-29T15:28:50;14.38;;;2.47;;
54937;SDS011;52756;52.826;6.214;2022-12-29T15:31:18;12.95;;;2.63;;
54937;SDS011;52756;52.826;6.214;2022-12-29T15:33:47;8.57;;;2.17;;
54937;SDS011;52756;52.826;6.214;2022-12-29T15:36:19;11.45;;;3.20;;
54937;SDS011;52756;52.826;6.214;2022-12-29T15:38:46;11.45;;;3.17;;
54937;SDS011;52756;52.826;6.214;2022-12-29T15:44:26;9.00;;;2.30;;
54937;SDS011;52756;52.826;6.214;2022-12-29T15:47:03;8.63;;;2.10;;
54937;SDS011;52756;52.826;6.214;2022-12-29T15:49:31;11.82;;;2.42;;
54937;SDS011;52756;52.826;6.214;2022-12-29T15:51:57;10.70;;;2.65;;
54937;SDS011;52756;52.826;6.214;2022-12-29T15:54:24;9.48;;;2.35;;
54937;SDS011;52756;52.826;6.214;2022-12-29T15:56:56;9.20;;;2.47;;
54937;SDS011;52756;52.826;6.214;2022-12-29T15:59:30;15.05;;;2.33;;
54937;SDS011;52756;52.826;6.214;2022-12-29T16:01:59;16.92;;;3.60;;
54937;SDS011;52756;52.826;6.214;2022-12-29T16:04:27;13.32;;;2.60;;
54937;SDS011;52756;52.826;6.214;2022-12-29T16:06:56;10.32;;;2.10;;
54937;SDS011;52756;52.826;6.214;2022-12-29T16:09:31;11.88;;;2.55;;
54937;SDS011;52756;52.826;6.214;2022-12-29T16:12:24;10.43;;;2.70;;
54937;SDS011;52756;52.826;6.214;2022-12-29T16:15:02;10.85;;;2.80;;
54937;SDS011;52756;52.826;6.214;2022-12-29T16:17:34;9.15;;;2.63;;
54937;SDS011;52756;52.826;6.214;2022-12-29T16:20:18;11.82;;;2.22;;
54937;SDS011;52756;52.826;6.214;2022-12-29T16:22:49;6.78;;;2.00;;
54937;SDS011;52756;52.826;6.214;2022-12-29T16:25:54;8.95;;;2.03;;
54937;SDS011;52756;52.826;6.214;2022-12-29T16:28:34;8.82;;;2.20;;
54937;SDS011;52756;52.826;6.214;2022-12-29T16:31:15;5.85;;;1.55;;
54937;SDS011;52756;52.826;6.214;2022-12-29T16:33:48;4.18;;;1.13;;
54937;SDS011;52756;52.826;6.214;2022-12-29T16:36:22;4.43;;;1.20;;
54937;SDS011;52756;52.826;6.214;2022-12-29T16:38:48;6.68;;;0.85;;
54937;SDS011;52756;52.826;6.214;2022-12-29T16:41:28;5.13;;;0.77;;
54937;SDS011;52756;52.826;6.214;2022-12-29T16:49:29;2.67;;;0.60;;
54937;SDS011;52756;52.826;6.214;2022-12-29T16:51:57;2.05;;;0.75;;
54937;SDS011;52756;52.826;6.214;2022-12-29T16:54:25;4.80;;;0.90;;
54937;SDS011;52756;52.826;6.214;2022-12-29T16:56:57;4.47;;;0.90;;
54937;SDS011;52756;52.826;6.214;2022-12-29T17:01:55;1.63;;;0.60;;
54937;SDS011;52756;52.826;6.214;2022-12-29T17:04:22;2.95;;;0.93;;
54937;SDS011;52756;52.826;6.214;2022-12-29T17:06:48;6.03;;;1.92;;
54937;SDS011;52756;52.826;6.214;2022-12-29T17:09:21;5.22;;;1.92;;
54937;SDS011;52756;52.826;6.214;2022-12-29T17:11:52;4.65;;;1.90;;
54937;SDS011;52756;52.826;6.214;2022-12-29T17:14:22;18.67;;;14.07;;
54937;SDS011;52756;52.826;6.214;2022-12-29T17:16:49;34.80;;;26.13;;
54937;SDS011;52756;52.826;6.214;2022-12-29T17:19:19;26.70;;;20.75;;
54937;SDS011;52756;52.826;6.214;2022-12-29T17:21:50;32.25;;;22.38;;
54937;SDS011;52756;52.826;6.214;2022-12-29T17:24:17;24.98;;;18.73;;
54937;SDS011;52756;52.826;6.214;2022-12-29T17:26:44;18.30;;;13.98;;
54937;SDS011;52756;52.826;6.214;2022-12-29T17:32:03;22.70;;;17.35;;
54937;SDS011;52756;52.826;6.214;2022-12-29T17:34:32;27.73;;;19.75;;